createdAt,value
2023-04-12T00:01:01.058Z,74.57
2023-04-12T00:03:35.013Z,74.49
2023-04-12T00:06:10.406Z,74.55
2023-04-12T00:08:47.119Z,75.08
2023-04-12T00:11:20.432Z,74.46
2023-04-12T00:13:55.524Z,74.71
2023-04-12T00:16:30.128Z,74.18
2023-04-12T00:19:03.687Z,74.53
2023-04-12T00:21:38.130Z,74.34
2023-04-12T00:24:12.365Z,74.76
2023-04-12T00:26:45.508Z,74.46
2023-04-12T00:29:18.439Z,73.70
2023-04-12T00:31:51.337Z,73.46
2023-04-12T00:34:24.418Z,73.44
2023-04-12T00:36:59.099Z,73.42
2023-04-12T00:39:39.606Z,73.44
2023-04-12T00:42:12.564Z,73.26
2023-04-12T00:44:45.813Z,72.53
2023-04-12T00:47:18.816Z,72.95
2023-04-12T00:49:52.147Z,73.42
2023-04-12T00:52:28.206Z,73.04
2023-04-12T00:55:01.190Z,73.38
2023-04-12T00:57:36.647Z,73.44
2023-04-12T01:00:13.669Z,72.82
2023-04-12T01:02:48.484Z,73.12
2023-04-12T01:05:24.126Z,72.22
2023-04-12T01:08:05.014Z,72.85
2023-04-12T01:10:42.803Z,72.79
2023-04-12T01:13:21.753Z,72.70
2023-04-12T01:15:59.509Z,72.70
2023-04-12T01:18:34.777Z,72.47
2023-04-12T01:21:10.353Z,72.13
2023-04-12T01:23:59.494Z,71.44
2023-04-12T01:26:34.806Z,72.16
2023-04-12T01:29:11.940Z,71.73
2023-04-12T01:31:49.593Z,71.80
2023-04-12T01:34:24.260Z,72.01
2023-04-12T01:36:58.551Z,71.31
2023-04-12T01:39:32.506Z,71.46
2023-04-12T01:42:06.722Z,72.38
2023-04-12T01:44:41.339Z,71.95
2023-04-12T01:47:14.637Z,70.55
2023-04-12T01:49:51.084Z,70.86
2023-04-12T01:52:24.560Z,71.24
2023-04-12T01:54:59.334Z,71.24
2023-04-12T01:57:32.757Z,70.70
2023-04-12T02:00:10.769Z,71.56
2023-04-12T02:02:45.047Z,71.32
2023-04-12T02:05:19.087Z,71.08
2023-04-12T02:07:52.489Z,72.08
2023-04-12T02:10:32.187Z,72.65
2023-04-12T02:13:05.578Z,71.91
2023-04-12T02:15:40.617Z,72.01
2023-04-12T02:18:17.038Z,72.29
2023-04-12T02:20:50.887Z,72.92
2023-04-12T02:23:23.805Z,71.91
2023-04-12T02:25:56.763Z,72.94
2023-04-12T02:28:29.711Z,72.11
2023-04-12T02:31:04.920Z,72.28
2023-04-12T02:33:38.211Z,71.95
2023-04-12T02:36:11.683Z,71.30
2023-04-12T02:38:44.706Z,71.68
2023-04-12T02:41:18.460Z,71.89
2023-04-12T02:43:51.948Z,71.86
2023-04-12T02:46:27.327Z,72.02
2023-04-12T02:49:00.690Z,72.06
2023-04-12T02:51:33.810Z,72.07
2023-04-12T02:54:07.032Z,72.91
2023-04-12T02:56:40.618Z,72.97
2023-04-12T02:59:13.543Z,73.74
2023-04-12T03:01:50.844Z,73.94
2023-04-12T03:04:30.786Z,74.13
2023-04-12T03:07:03.866Z,73.75
2023-04-12T03:09:38.761Z,73.71
2023-04-12T03:12:12.300Z,73.91
2023-04-12T03:14:45.825Z,74.59
2023-04-12T03:17:20.898Z,73.65
2023-04-12T03:19:54.219Z,74.07
2023-04-12T03:22:27.086Z,73.78
2023-04-12T03:25:00.169Z,73.49
2023-04-12T03:27:33.372Z,73.64
2023-04-12T03:30:10.465Z,73.77
2023-04-12T03:32:45.658Z,73.94
2023-04-12T03:35:18.922Z,73.82
2023-04-12T03:37:51.883Z,73.73
2023-04-12T03:40:24.894Z,73.57
2023-04-12T03:43:00.024Z,73.72
2023-04-12T03:45:35.133Z,73.30
2023-04-12T03:48:11.114Z,72.88
2023-04-12T03:50:45.351Z,73.20
2023-04-12T03:53:18.328Z,73.46
2023-04-12T03:55:51.634Z,73.06
2023-04-12T03:58:25.092Z,73.28
2023-04-12T04:00:58.224Z,73.09
2023-04-12T04:03:35.184Z,72.20
2023-04-12T04:06:09.339Z,72.18
2023-04-12T04:08:42.605Z,72.91
2023-04-12T04:11:16.402Z,72.72
2023-04-12T04:13:49.856Z,72.98
2023-04-12T04:16:23.349Z,72.75
2023-04-12T04:18:57.738Z,72.38
2023-04-12T04:21:32.232Z,72.83
2023-04-12T04:24:07.085Z,72.41
2023-04-12T04:26:40.516Z,72.42
2023-04-12T04:29:13.358Z,72.14
2023-04-12T04:31:46.659Z,72.13
2023-04-12T04:34:22.210Z,72.83
2023-04-12T04:36:55.593Z,72.43
2023-04-12T04:39:29.438Z,73.24
2023-04-12T04:42:02.635Z,72.71
2023-04-12T04:44:37.301Z,72.84
2023-04-12T04:47:10.458Z,72.93
2023-04-12T04:49:45.487Z,72.78
2023-04-12T04:52:19.677Z,72.99
2023-04-12T04:54:57.498Z,73.32
2023-04-12T04:57:30.777Z,73.01
2023-04-12T05:00:11.000Z,73.44
2023-04-12T05:02:45.902Z,73.81
2023-04-12T05:05:23.212Z,73.78
2023-04-12T05:07:56.714Z,73.00
2023-04-12T05:10:29.802Z,72.63
2023-04-12T05:13:03.334Z,73.21
2023-04-12T05:15:36.725Z,73.26
2023-04-12T05:18:10.389Z,72.76
2023-04-12T05:20:45.579Z,73.04
2023-04-12T05:23:18.572Z,72.71
2023-04-12T05:25:51.644Z,72.89
2023-04-12T05:28:24.517Z,72.86
2023-04-12T05:30:57.442Z,72.30
2023-04-12T05:33:33.378Z,73.06
2023-04-12T05:36:08.780Z,71.88
2023-04-12T05:38:42.032Z,72.27
2023-04-12T05:41:14.975Z,71.92
2023-04-12T05:43:48.204Z,71.59
2023-04-12T05:46:21.606Z,71.87
2023-04-12T05:48:55.077Z,72.02
2023-04-12T05:51:40.272Z,72.44
2023-04-12T05:54:14.500Z,71.42
2023-04-12T05:56:47.862Z,71.54
2023-04-12T05:59:21.190Z,71.20
2023-04-12T06:01:54.688Z,71.06
2023-04-12T06:04:42.211Z,71.34
2023-04-12T06:07:22.178Z,71.33
2023-04-12T06:09:55.369Z,70.56
2023-04-12T06:12:29.135Z,70.82
2023-04-12T06:15:02.271Z,71.13
2023-04-12T06:17:35.473Z,71.34
2023-04-12T06:20:09.768Z,71.58
2023-04-12T06:22:44.483Z,71.47
2023-04-12T06:25:17.628Z,72.18
2023-04-12T06:27:50.610Z,71.21
2023-04-12T06:30:23.822Z,70.81
2023-04-12T06:32:57.045Z,70.85
2023-04-12T06:35:30.348Z,71.18
2023-04-12T06:38:05.183Z,70.21
2023-04-12T06:40:38.221Z,70.50
2023-04-12T06:43:11.170Z,69.85
2023-04-12T06:45:44.047Z,69.02
2023-04-12T06:48:17.133Z,69.28
2023-04-12T06:50:50.123Z,69.28
2023-04-12T06:53:24.724Z,68.94
2023-04-12T06:55:57.921Z,68.69
2023-04-12T06:58:31.854Z,69.24
2023-04-12T07:01:07.909Z,68.63
2023-04-12T07:03:41.345Z,68.95
2023-04-12T07:06:25.180Z,68.58
2023-04-12T07:09:00.402Z,68.59
2023-04-12T07:11:33.809Z,68.86
2023-04-12T07:14:07.444Z,68.14
2023-04-12T07:16:40.753Z,68.10
2023-04-12T07:19:14.123Z,68.39
2023-04-12T07:21:47.376Z,68.54
2023-04-12T07:24:21.800Z,67.30
2023-04-12T07:26:55.249Z,66.39
2023-04-12T07:29:28.277Z,66.13
2023-04-12T07:32:01.650Z,65.41
2023-04-12T07:34:35.050Z,65.01
2023-04-12T07:37:08.006Z,64.86
2023-04-12T07:39:42.695Z,65.04
2023-04-12T07:42:15.774Z,64.89
2023-04-12T07:44:48.784Z,63.78
2023-04-12T07:47:22.221Z,62.02
2023-04-12T07:49:56.075Z,61.87
2023-04-12T07:52:29.280Z,61.73
2023-04-12T07:55:03.800Z,60.88
2023-04-12T07:57:36.982Z,59.92
2023-04-12T08:00:11.309Z,57.15
2023-04-12T08:02:45.165Z,55.77
2023-04-12T08:05:18.939Z,55.79
2023-04-12T08:07:52.176Z,55.02
2023-04-12T08:10:26.741Z,54.67
2023-04-12T08:13:01.122Z,55.71
2023-04-12T08:15:36.500Z,55.62
2023-04-12T08:18:10.094Z,54.21
2023-04-12T08:20:44.606Z,54.40
2023-04-12T08:23:17.813Z,52.80
2023-04-12T08:25:52.309Z,53.13
2023-04-12T08:28:28.609Z,52.53
2023-04-12T08:31:02.482Z,52.91
2023-04-12T08:33:38.784Z,53.21
2023-04-12T08:36:12.237Z,55.58
2023-04-12T08:38:53.605Z,53.72
2023-04-12T08:41:28.678Z,54.97
2023-04-12T08:44:01.889Z,53.43
2023-04-12T08:46:37.039Z,54.09
2023-04-12T08:49:11.616Z,54.26
2023-04-12T08:51:46.769Z,52.22
2023-04-12T08:54:20.218Z,51.78
2023-04-12T08:56:55.041Z,52.88
2023-04-12T08:59:28.959Z,51.56
2023-04-12T09:02:03.333Z,51.78
2023-04-12T09:04:48.650Z,52.41
2023-04-12T09:07:23.464Z,50.69
2023-04-12T09:09:57.233Z,51.45
2023-04-12T09:12:32.204Z,49.01
2023-04-12T09:15:10.016Z,49.96
2023-04-12T09:17:43.976Z,48.28
2023-04-12T09:20:25.764Z,48.28
2023-04-12T09:22:58.973Z,48.05
2023-04-12T09:25:39.981Z,48.15
2023-04-12T09:28:22.013Z,47.43
2023-04-12T09:30:55.629Z,47.92
2023-04-12T09:33:35.530Z,48.45
2023-04-12T09:36:13.786Z,48.66
2023-04-12T09:38:59.971Z,49.11
2023-04-12T09:41:33.354Z,48.63
2023-04-12T09:44:08.097Z,48.41
2023-04-12T09:46:56.317Z,49.32
2023-04-12T09:49:37.468Z,46.59
2023-04-12T09:52:11.745Z,45.15
2023-04-12T09:54:45.391Z,47.97
2023-04-12T09:57:18.820Z,44.74
2023-04-12T09:59:54.489Z,44.46
2023-04-12T10:02:28.889Z,44.88
2023-04-12T10:05:02.351Z,45.16
2023-04-12T10:07:37.699Z,47.37
2023-04-12T10:10:12.683Z,48.33
2023-04-12T10:12:47.985Z,46.47
2023-04-12T10:15:22.842Z,47.35
2023-04-12T10:17:57.530Z,46.91
2023-04-12T10:20:31.171Z,47.73
2023-04-12T10:23:04.206Z,48.06
2023-04-12T10:25:39.935Z,48.35
2023-04-12T10:28:17.399Z,47.79
2023-04-12T10:30:53.373Z,47.05
2023-04-12T10:33:27.357Z,48.25
2023-04-12T10:36:04.128Z,46.50
2023-04-12T10:38:46.649Z,47.06
2023-04-12T10:41:20.170Z,46.99
2023-04-12T10:43:53.579Z,48.15
2023-04-12T10:46:50.175Z,47.88
2023-04-12T10:49:23.448Z,49.06
2023-04-12T10:52:12.647Z,49.13
2023-04-12T10:54:45.909Z,48.58
2023-04-12T10:57:37.449Z,49.06
2023-04-12T11:00:11.044Z,47.19
2023-04-12T11:03:02.972Z,47.98
2023-04-12T11:05:54.899Z,48.00
2023-04-12T11:08:31.382Z,46.66
2023-04-12T11:11:05.302Z,46.05
2023-04-12T11:13:40.081Z,46.80
2023-04-12T11:16:14.437Z,46.25
2023-04-12T11:18:48.006Z,47.02
2023-04-12T11:21:21.380Z,46.41
2023-04-12T11:23:56.506Z,50.02
2023-04-12T11:26:32.016Z,55.20
2023-04-12T11:29:08.218Z,64.76
2023-04-12T11:31:41.245Z,66.38
2023-04-12T11:34:16.032Z,66.06
2023-04-12T11:36:56.581Z,67.15
2023-04-12T11:39:32.116Z,65.70
2023-04-12T11:42:08.725Z,66.16
2023-04-12T11:44:56.163Z,66.20
2023-04-12T11:47:30.385Z,62.56
2023-04-12T11:50:03.890Z,59.65
2023-04-12T11:52:36.984Z,60.92
2023-04-12T11:55:11.938Z,58.66
2023-04-12T11:57:52.184Z,54.34
2023-04-12T12:00:27.697Z,50.45
2023-04-12T12:03:07.577Z,53.49
2023-04-12T12:05:42.293Z,57.04
2023-04-12T12:08:15.852Z,58.93
2023-04-12T12:11:06.281Z,61.87
2023-04-12T12:13:45.070Z,60.05
2023-04-12T12:16:18.975Z,58.88
2023-04-12T12:18:52.986Z,57.78
2023-04-12T12:21:26.369Z,59.83
2023-04-12T12:24:01.441Z,60.41
2023-04-12T12:26:37.128Z,61.42
2023-04-12T12:29:18.095Z,59.04
2023-04-12T12:31:52.062Z,58.31
2023-04-12T12:34:25.102Z,57.10
2023-04-12T12:36:58.055Z,57.28
2023-04-12T12:39:31.107Z,54.70
2023-04-12T12:42:06.558Z,54.85
2023-04-12T12:44:39.874Z,52.25
2023-04-12T12:47:14.533Z,51.06
2023-04-12T12:49:48.123Z,49.21
2023-04-12T12:52:21.609Z,48.58
2023-04-12T12:54:54.658Z,49.36
2023-04-12T12:57:29.412Z,49.48
2023-04-12T13:00:03.215Z,48.80
2023-04-12T13:02:36.283Z,48.36
2023-04-12T13:05:11.790Z,48.04
2023-04-12T13:07:45.646Z,46.45
2023-04-12T13:10:18.835Z,46.81
2023-04-12T13:12:54.239Z,41.08
2023-04-12T13:15:27.618Z,42.18
2023-04-12T13:18:01.267Z,40.17
2023-04-12T13:20:34.866Z,40.61
2023-04-12T13:23:07.888Z,39.52
2023-04-12T13:25:40.977Z,41.16
2023-04-12T13:28:16.922Z,39.58
2023-04-12T13:30:50.212Z,39.69
2023-04-12T13:33:23.593Z,40.00
2023-04-12T13:35:56.698Z,39.27
2023-04-12T13:38:29.834Z,37.62
2023-04-12T13:41:03.224Z,38.15
2023-04-12T13:43:37.891Z,37.45
2023-04-12T13:46:13.046Z,37.21
2023-04-12T13:48:46.133Z,38.16
2023-04-12T13:51:19.248Z,37.19
2023-04-12T13:53:52.210Z,36.98
2023-04-12T13:56:25.774Z,38.21
2023-04-12T13:59:00.822Z,38.31
2023-04-12T14:01:33.896Z,37.48
2023-04-12T14:04:07.652Z,36.38
2023-04-12T14:06:40.763Z,35.40
2023-04-12T14:09:23.818Z,35.82
2023-04-12T14:11:58.193Z,33.92
2023-04-12T14:14:33.493Z,34.57
2023-04-12T14:17:06.996Z,32.88
2023-04-12T14:19:40.441Z,34.11
2023-04-12T14:22:13.566Z,32.46
2023-04-12T14:24:46.744Z,32.64
2023-04-12T14:27:19.676Z,32.30
2023-04-12T14:29:54.198Z,32.58
2023-04-12T14:32:27.404Z,31.40
2023-04-12T14:35:01.090Z,32.79
2023-04-12T14:37:34.217Z,33.16
2023-04-12T14:40:08.571Z,31.99
2023-04-12T14:42:41.788Z,30.03
2023-04-12T14:45:17.469Z,30.70
2023-04-12T14:47:50.607Z,31.02
2023-04-12T14:50:24.089Z,30.93
2023-04-12T14:52:57.234Z,31.01
2023-04-12T14:55:30.527Z,31.19
2023-04-12T14:58:03.759Z,32.75
2023-04-12T15:00:38.383Z,30.29
2023-04-12T15:03:11.604Z,33.88
2023-04-12T15:05:44.674Z,31.05
2023-04-12T15:08:18.101Z,30.96
2023-04-12T15:10:51.986Z,30.49
2023-04-12T15:13:33.564Z,32.63
2023-04-12T15:16:14.313Z,31.00
2023-04-12T15:18:47.900Z,31.37
2023-04-12T15:21:21.144Z,31.08
2023-04-12T15:23:54.382Z,30.62
2023-04-12T15:26:27.771Z,33.67
2023-04-12T15:29:00.841Z,32.34
2023-04-12T15:31:35.254Z,35.53
2023-04-12T15:34:08.532Z,37.78
2023-04-12T15:36:43.288Z,38.84
2023-04-12T15:39:16.575Z,40.02
2023-04-12T15:41:49.567Z,39.79
2023-04-12T15:44:25.758Z,41.10
2023-04-12T15:47:10.382Z,43.01
2023-04-12T15:49:47.312Z,44.54
2023-04-12T15:52:20.213Z,45.84
2023-04-12T15:54:53.406Z,47.86
2023-04-12T15:57:27.714Z,48.62
2023-04-12T16:00:04.663Z,46.61
2023-04-12T16:02:39.381Z,48.86
2023-04-12T16:05:13.830Z,48.23
2023-04-12T16:07:51.521Z,47.98
2023-04-12T16:10:25.050Z,47.66
2023-04-12T16:12:58.794Z,49.52
2023-04-12T16:15:33.563Z,47.79
2023-04-12T16:18:09.243Z,47.21
2023-04-12T16:20:42.304Z,49.25
2023-04-12T16:23:16.746Z,49.73
2023-04-12T16:25:50.201Z,50.09
2023-04-12T16:28:23.574Z,47.78
2023-04-12T16:30:57.121Z,48.67
2023-04-12T16:33:31.916Z,50.30
2023-04-12T16:36:04.967Z,48.35
2023-04-12T16:38:38.489Z,49.61
2023-04-12T16:41:11.667Z,49.09
2023-04-12T16:43:45.549Z,49.15
2023-04-12T16:46:18.754Z,51.79
2023-04-12T16:48:58.515Z,50.41
2023-04-12T16:51:36.828Z,48.97
2023-04-12T16:54:10.587Z,51.70
2023-04-12T16:56:43.710Z,53.42
2023-04-12T16:59:16.816Z,51.03
2023-04-12T17:01:49.964Z,51.10
2023-04-12T17:04:24.466Z,50.67
2023-04-12T17:06:58.988Z,50.20
2023-04-12T17:09:31.968Z,51.11
2023-04-12T17:12:06.263Z,52.17
2023-04-12T17:14:40.329Z,51.78
2023-04-12T17:17:16.341Z,53.95
2023-04-12T17:19:51.855Z,56.21
2023-04-12T17:22:24.933Z,53.58
2023-04-12T17:24:57.874Z,56.02
2023-04-12T17:27:34.382Z,55.31
2023-04-12T17:30:09.911Z,56.23
2023-04-12T17:32:43.761Z,55.92
2023-04-12T17:35:18.701Z,57.38
2023-04-12T17:37:51.957Z,58.64
2023-04-12T17:40:24.969Z,58.48
2023-04-12T17:42:58.095Z,58.88
2023-04-12T17:45:31.353Z,58.73
2023-04-12T17:48:05.293Z,59.68
2023-04-12T17:50:40.016Z,58.56
2023-04-12T17:53:12.971Z,59.13
2023-04-12T17:55:48.322Z,58.29
2023-04-12T17:58:22.580Z,59.04
2023-04-12T18:00:55.799Z,59.56
2023-04-12T18:03:29.330Z,59.42
2023-04-12T18:06:04.338Z,59.90
2023-04-12T18:08:38.552Z,60.63
2023-04-12T18:11:13.062Z,61.68
2023-04-12T18:13:46.243Z,61.79
2023-04-12T18:16:20.264Z,61.83
2023-04-12T18:18:54.976Z,63.00
2023-04-12T18:21:29.710Z,62.55
2023-04-12T18:24:03.171Z,62.60
2023-04-12T18:26:36.506Z,63.62
2023-04-12T18:29:11.860Z,64.03
2023-04-12T18:31:45.536Z,65.43
2023-04-12T18:34:19.211Z,65.25
2023-04-12T18:36:53.841Z,65.80
2023-04-12T18:39:27.102Z,65.84
2023-04-12T18:42:00.216Z,65.60
2023-04-12T18:44:34.403Z,66.12
2023-04-12T18:47:07.711Z,65.50
2023-04-12T18:49:40.990Z,65.70
2023-04-12T18:52:15.482Z,65.85
2023-04-12T18:54:48.593Z,66.94
2023-04-12T18:57:22.148Z,67.46
2023-04-12T18:59:55.795Z,67.11
2023-04-12T19:02:29.380Z,67.62
2023-04-12T19:05:03.205Z,68.53
2023-04-12T19:07:37.949Z,67.29
2023-04-12T19:10:12.806Z,68.44
2023-04-12T19:12:47.091Z,68.31
2023-04-12T19:15:21.568Z,68.26
2023-04-12T19:17:54.925Z,68.53
2023-04-12T19:20:28.236Z,69.37
2023-04-12T19:23:04.363Z,67.47
2023-04-12T19:25:37.818Z,68.60
2023-04-12T19:28:12.212Z,68.21
2023-04-12T19:30:45.393Z,67.55
2023-04-12T19:33:18.518Z,67.29
2023-04-12T19:35:55.368Z,69.41
2023-04-12T19:38:30.275Z,69.18
2023-04-12T19:41:03.655Z,66.52
2023-04-12T19:43:36.762Z,65.66
2023-04-12T19:46:10.184Z,66.91
2023-04-12T19:48:43.386Z,68.49
2023-04-12T19:51:18.262Z,68.04
2023-04-12T19:53:54.912Z,69.66
2023-04-12T19:56:30.165Z,67.69
2023-04-12T19:59:05.183Z,69.38
2023-04-12T20:01:47.992Z,67.25
2023-04-12T20:04:22.283Z,69.22
2023-04-12T20:06:55.776Z,66.78
2023-04-12T20:09:30.147Z,69.71
2023-04-12T20:12:07.361Z,67.80
2023-04-12T20:14:40.806Z,69.36
2023-04-12T20:17:14.132Z,69.39
2023-04-12T20:19:47.995Z,70.13
2023-04-12T20:22:22.211Z,68.66
2023-04-12T20:24:58.445Z,69.45
2023-04-12T20:27:32.382Z,69.44
2023-04-12T20:30:05.866Z,69.57
2023-04-12T20:32:39.392Z,69.74
2023-04-12T20:35:14.201Z,70.08
2023-04-12T20:37:50.335Z,68.27
2023-04-12T20:40:27.162Z,67.16
2023-04-12T20:43:00.763Z,67.17
2023-04-12T20:45:34.749Z,66.46
2023-04-12T20:48:09.840Z,66.95
2023-04-12T20:50:42.848Z,66.33
2023-04-12T20:53:17.553Z,66.64
2023-04-12T20:55:53.324Z,66.28
2023-04-12T20:58:26.752Z,66.53
2023-04-12T21:01:00.297Z,67.48
2023-04-12T21:03:33.807Z,66.95
2023-04-12T21:06:07.321Z,67.68
2023-04-12T21:08:43.370Z,66.76
2023-04-12T21:11:18.209Z,67.39
2023-04-12T21:13:52.650Z,66.85
2023-04-12T21:16:26.616Z,66.82
2023-04-12T21:19:00.634Z,66.29
2023-04-12T21:21:34.149Z,67.09
2023-04-12T21:24:07.203Z,65.91
2023-04-12T21:26:43.681Z,66.61
2023-04-12T21:29:19.705Z,65.49
2023-04-12T21:31:52.645Z,69.27
2023-04-12T21:34:25.921Z,65.79
2023-04-12T21:37:00.297Z,65.84
2023-04-12T21:39:33.288Z,66.25
2023-04-12T21:42:07.809Z,67.00
2023-04-12T21:44:42.575Z,66.96
2023-04-12T21:47:15.817Z,66.02
2023-04-12T21:49:48.823Z,65.63
2023-04-12T21:52:21.819Z,66.88
2023-04-12T21:54:55.665Z,66.88
2023-04-12T21:57:31.854Z,68.46
2023-04-12T22:00:06.418Z,65.13
2023-04-12T22:02:39.751Z,66.42
2023-04-12T22:05:12.929Z,65.57
2023-04-12T22:07:45.884Z,65.96
2023-04-12T22:10:20.540Z,68.18
2023-04-12T22:12:56.211Z,66.47
2023-04-12T22:15:29.909Z,66.21
2023-04-12T22:18:03.622Z,65.52
2023-04-12T22:20:36.814Z,65.85
2023-04-12T22:23:09.984Z,64.51
2023-04-12T22:25:43.117Z,64.85
2023-04-12T22:28:18.373Z,65.44
2023-04-12T22:30:51.657Z,67.83
2023-04-12T22:33:24.605Z,64.24
2023-04-12T22:35:58.135Z,63.92
2023-04-12T22:38:31.137Z,64.36
2023-04-12T22:41:04.404Z,64.83
2023-04-12T22:43:41.705Z,66.11
2023-04-12T22:46:16.628Z,64.73
2023-04-12T22:48:51.094Z,66.42
2023-04-12T22:51:27.376Z,65.66
2023-04-12T22:54:02.644Z,65.84
2023-04-12T22:56:41.811Z,64.07
2023-04-12T22:59:16.887Z,66.61
2023-04-12T23:01:50.257Z,66.17
2023-04-12T23:04:23.305Z,66.82
2023-04-12T23:06:56.500Z,64.80
2023-04-12T23:09:29.868Z,68.07
2023-04-12T23:12:06.439Z,65.83
2023-04-12T23:14:41.147Z,65.65
2023-04-12T23:17:16.885Z,65.82
2023-04-12T23:19:50.555Z,65.49
2023-04-12T23:22:48.688Z,67.12
2023-04-12T23:25:37.954Z,69.76
2023-04-12T23:28:14.136Z,66.55
2023-04-12T23:30:49.959Z,65.44
2023-04-12T23:33:25.261Z,65.51
2023-04-12T23:35:58.814Z,66.52
2023-04-12T23:38:33.924Z,66.84
2023-04-12T23:41:07.603Z,66.59
2023-04-12T23:43:40.948Z,65.75
2023-04-12T23:46:15.340Z,66.69
2023-04-12T23:48:49.334Z,66.52
2023-04-12T23:51:23.146Z,66.84
2023-04-12T23:53:56.129Z,66.12
2023-04-12T23:56:29.130Z,66.86
2023-04-12T23:59:02.202Z,66.68
